This is the latest recevied weather packets stored in our database for station/object N3FAA. If no packets are shown the sender has not sent any weather packets the latest 10 day(s).
| Time | Temp. | Humidity | Pressure | Rain* | Wind** | Luminosity | Snow |
|---|---|---|---|---|---|---|---|
| 1777554813 | 13.33° C | 59% | 1010.2 hPa | 0 mm | - | 8 W/m² | - |
| 1777554509 | 13.33° C | 59% | 1010.3 hPa | 0 mm | - | 6 W/m² | - |
| 1777554206 | 13.33° C | 59% | 1010.2 hPa | 0 mm | - | 3 W/m² | - |
| 1777553903 | 13.33° C | 59% | 1010.3 hPa | 0 mm | - | 0 W/m² | - |
| 1777553600 | 12.78° C | 60% | 1010.2 hPa | 0 mm | - | 0 W/m² | - |
| 1777553296 | 12.78° C | 61% | 1010.2 hPa | 0 mm | - | 0 W/m² | - |
| 1777552992 | 12.78° C | 62% | 1010 hPa | 0 mm | - | 0 W/m² | - |
| 1777552691 | 12.22° C | 63% | 1010 hPa | 0 mm | - | 0 W/m² | - |
| 1777552389 | 12.22° C | 64% | 1010.2 hPa | 0 mm | - | 0 W/m² | - |
| 1777552085 | 11.67° C | 64% | 1010.2 hPa | 0 mm | - | 0 W/m² | - |
| 1777551782 | 11.67° C | 66% | 1010.1 hPa | 0 mm | - | 0 W/m² | - |
| 1777551480 | 10.56° C | 68% | 1010.3 hPa | 0 mm | - | 0 W/m² | - |
| 1777551176 | 10.56° C | 67% | 1010.3 hPa | 0 mm | - | 0 W/m² | - |
| 1777550874 | 10.56° C | 67% | 1010.6 hPa | 0 mm | - | 0 W/m² | - |
| 1777550569 | 11.67° C | 65% | 1010.6 hPa | 0 mm | - | 0 W/m² | - |
| 1777550265 | 12.22° C | 63% | 1010.6 hPa | 0 mm | - | 0 W/m² | - |
| 1777549962 | 13.33° C | 60% | 1010.5 hPa | 0 mm | - | 0 W/m² | - |
| 1777549658 | 13.33° C | 59% | 1010.7 hPa | 0 mm | - | 0 W/m² | - |
| 1777549354 | 13.89° C | 58% | 1010.3 hPa | 0 mm | - | 0 W/m² | - |
| 1777549052 | 13.33° C | 59% | 1010.5 hPa | 0 mm | - | 0 W/m² | - |
| 1777548748 | 13.33° C | 59% | 1010.4 hPa | 0 mm | - | 0 W/m² | - |
| 1777548446 | 12.78° C | 61% | 1010.4 hPa | 0 mm | - | 0 W/m² | - |
| 1777548142 | 12.22° C | 63% | 1010.5 hPa | 0 mm | - | 0 W/m² | - |
| 1777547838 | 11.67° C | 64% | 1010.5 hPa | 0 mm | - | 0 W/m² | - |
| 1777547534 | 10.56° C | 67% | 1010.6 hPa | 0 mm | - | 0 W/m² | - |
* Rain latest hour (hover to see other rain measurements)
** Current wind speed in m/s (hover to see current wind gust speed)